Time;durP1;ratioP1;P1;durP2;ratioP2;P2;SDS_P1;SDS_P2;PMS_P1;PMS_P2;Temp;Humidity;BMP_temperature;BMP_pressure;BME280_temperature;BME280_humidity;BME280_pressure;Samples;Min_cycle;Max_cycle;Signal;HPM_P1;HPM_P2
2019/04/08 00:00:07;;;;;;;14.4;12.9;;;;;;;9.16;100;949.6464;;;;
2019/04/08 00:02:34;;;;;;;17.5;14.4;;;;;;;9.15;100;949.6433;;;;
2019/04/08 00:04:57;;;;;;;16.2;14.5;;;;;;;9.16;100;949.6581;;;;
2019/04/08 00:07:22;;;;;;;14.1;12.7;;;;;;;9.13;100;949.6108;;;;
2019/04/08 00:09:47;;;;;;;15;13.5;;;;;;;9.15;100;949.6639;;;;
2019/04/08 00:12:12;;;;;;;15.4;13.8;;;;;;;9.1;100;949.7034;;;;
2019/04/08 00:14:37;;;;;;;16.8;15.1;;;;;;;9.07;100;949.6686;;;;
2019/04/08 00:17:02;;;;;;;17.2;15.4;;;;;;;8.99;100;949.6782;;;;
2019/04/08 00:19:27;;;;;;;19.5;17.4;;;;;;;8.92;100;949.6478;;;;
2019/04/08 00:21:53;;;;;;;20.5;18.3;;;;;;;8.8;100;949.5508;;;;
2019/04/08 00:24:18;;;;;;;20.8;18.4;;;;;;;8.71;100;949.6256;;;;
2019/04/08 00:26:44;;;;;;;21.8;19.5;;;;;;;8.63;100;949.6304;;;;
2019/04/08 00:29:09;;;;;;;21.1;18.8;;;;;;;8.63;100;949.6304;;;;
2019/04/08 00:31:34;;;;;;;22;19.6;;;;;;;8.6;100;949.7316;;;;
2019/04/08 00:34:00;;;;;;;22.7;19.3;;;;;;;8.55;100;949.6858;;;;
2019/04/08 00:36:25;;;;;;;21.8;19.1;;;;;;;8.49;100;949.7181;;;;
2019/04/08 00:38:51;;;;;;;24.4;20.2;;;;;;;8.5;100;949.6789;;;;
2019/04/08 00:41:16;;;;;;;21.6;19.4;;;;;;;8.46;100;949.7556;;;;
2019/04/08 00:43:42;;;;;;;22.7;20.3;;;;;;;8.45;100;949.7389;;;;
2019/04/08 00:46:07;;;;;;;22.8;20.4;;;;;;;8.47;100;949.796;;;;
2019/04/08 00:48:32;;;;;;;22.5;18.2;;;;;;;8.5;100;949.8062;;;;
2019/04/08 00:50:58;;;;;;;21.7;18.7;;;;;;;8.45;100;949.7986;;;;
2019/04/08 00:53:23;;;;;;;21.6;19.3;;;;;;;8.42;100;949.7512;;;;
2019/04/08 00:55:48;;;;;;;22;19.7;;;;;;;8.44;100;949.7869;;;;
2019/04/08 00:58:13;;;;;;;20.3;18.2;;;;;;;8.42;100;949.764;;;;
2019/04/08 01:00:38;;;;;;;22.3;20;;;;;;;8.41;100;949.803;;;;
2019/04/08 01:03:03;;;;;;;20.7;18.5;;;;;;;8.4;100;949.8261;;;;
2019/04/08 01:05:28;;;;;;;19.7;17.6;;;;;;;8.46;100;949.8193;;;;
2019/04/08 01:07:54;;;;;;;21.2;19;;;;;;;8.47;100;949.8047;;;;
2019/04/08 01:10:19;;;;;;;20.8;18.6;;;;;;;8.5;100;949.823;;;;
2019/04/08 01:12:44;;;;;;;20.9;18.7;;;;;;;8.47;100;949.8214;;;;
2019/04/08 01:15:09;;;;;;;22.5;19.9;;;;;;;8.49;100;949.8022;;;;
2019/04/08 01:17:34;;;;;;;20.6;18.4;;;;;;;8.47;100;949.8214;;;;
2019/04/08 01:20:00;;;;;;;19.2;17.2;;;;;;;8.48;100;949.8589;;;;
2019/04/08 01:22:25;;;;;;;21;18.8;;;;;;;8.44;100;949.8466;;;;
2019/04/08 01:24:50;;;;;;;20.5;18.4;;;;;;;8.42;100;949.8491;;;;
2019/04/08 01:27:15;;;;;;;22.1;19.8;;;;;;;8.41;100;949.8419;;;;
2019/04/08 01:29:40;;;;;;;22.7;20.3;;;;;;;8.38;100;949.7767;;;;
2019/04/08 01:32:05;;;;;;;22.5;20.1;;;;;;;8.37;100;949.812;;;;
2019/04/08 01:34:30;;;;;;;23.9;20.7;;;;;;;8.33;100;949.8425;;;;
2019/04/08 01:36:56;;;;;;;23.7;21.1;;;;;;;8.32;100;949.7963;;;;
2019/04/08 01:39:21;;;;;;;26.1;22.9;;;;;;;8.33;100;949.8552;;;;
2019/04/08 01:41:46;;;;;;;23.8;20.7;;;;;;;8.34;100;949.832;;;;
2019/04/08 01:44:11;;;;;;;23.5;20.9;;;;;;;8.37;100;949.9313;;;;
2019/04/08 01:46:36;;;;;;;23;20.6;;;;;;;8.38;100;949.9003;;;;
2019/04/08 01:49:02;;;;;;;23.4;20.9;;;;;;;8.39;100;949.9756;;;;
2019/04/08 01:51:28;;;;;;;24.2;21.6;;;;;;;8.4;100;949.8937;;;;
2019/04/08 01:53:53;;;;;;;23.6;21;;;;;;;8.39;100;949.924;;;;
2019/04/08 01:56:19;;;;;;;25.1;21.4;;;;;;;8.43;100;949.9498;;;;
2019/04/08 01:58:45;;;;;;;23.5;21;;;;;;;8.46;100;949.9164;;;;
2019/04/08 02:01:14;;;;;;;25.2;20.8;;;;;;;8.48;100;949.9058;;;;
2019/04/08 02:03:39;;;;;;;24.7;21.8;;;;;;;8.48;100;949.889;;;;
2019/04/08 02:06:04;;;;;;;24.8;21.9;;;;;;;8.51;100;949.8811;;;;
2019/04/08 02:08:29;;;;;;;26.5;22.1;;;;;;;8.49;100;949.913;;;;
2019/04/08 02:10:54;;;;;;;24.3;20.6;;;;;;;8.48;100;949.9058;;;;
2019/04/08 02:13:19;;;;;;;24.5;21.8;;;;;;;8.49;100;950.0022;;;;
2019/04/08 02:15:44;;;;;;;24.1;21.6;;;;;;;8.49;100;950.0059;;;;
2019/04/08 02:18:09;;;;;;;26.8;22.8;;;;;;;8.53;100;949.9811;;;;
2019/04/08 02:20:47;;;;;;;24.2;21.6;;;;;;;8.53;100;949.9852;;;;
2019/04/08 02:23:13;;;;;;;25.4;21.8;;;;;;;8.59;100;950.0164;;;;
2019/04/08 02:25:38;;;;;;;25.3;21.7;;;;;;;8.57;100;950.0485;;;;
2019/04/08 02:28:03;;;;;;;26.6;22.9;;;;;;;8.54;100;950.0734;;;;
2019/04/08 02:30:29;;;;;;;23.6;21.1;;;;;;;8.56;100;950.0581;;;;
2019/04/08 02:32:55;;;;;;;24;21.4;;;;;;;8.62;100;950.0982;;;;
2019/04/08 02:35:20;;;;;;;24.4;21.8;;;;;;;8.58;100;950.1408;;;;
2019/04/08 02:37:45;;;;;;;24.2;20.7;;;;;;;8.6;100;950.1811;;;;
2019/04/08 02:40:12;;;;;;;26.3;23.2;;;;;;;8.61;100;950.2008;;;;
2019/04/08 02:42:36;;;;;;;24.9;22.2;;;;;;;8.57;100;950.2775;;;;
2019/04/08 02:45:01;;;;;;;24.6;22;;;;;;;8.59;100;950.3092;;;;
2019/04/08 02:47:28;;;;;;;25.2;21.7;;;;;;;8.57;100;950.3459;;;;
2019/04/08 02:49:53;;;;;;;25.1;22.5;;;;;;;8.56;100;950.3851;;;;
2019/04/08 02:52:18;;;;;;;23.8;21.3;;;;;;;8.58;100;950.4295;;;;
2019/04/08 02:54:43;;;;;;;23.6;21.1;;;;;;;8.56;100;950.4401;;;;
2019/04/08 02:57:08;;;;;;;24;21.2;;;;;;;8.57;100;950.4772;;;;
2019/04/08 02:59:34;;;;;;;23;20.6;;;;;;;8.56;100;950.491;;;;
2019/04/08 03:01:59;;;;;;;22.3;20;;;;;;;8.54;100;950.5139;;;;
2019/04/08 03:04:26;;;;;;;21.9;19.6;;;;;;;8.54;100;950.5277;;;;
2019/04/08 03:06:51;;;;;;;20.6;18.4;;;;;;;8.54;100;950.6082;;;;
2019/04/08 03:09:17;;;;;;;20;17.9;;;;;;;8.53;100;950.5793;;;;
2019/04/08 03:11:42;;;;;;;18.7;16.8;;;;;;;8.51;100;950.5477;;;;
2019/04/08 03:14:08;;;;;;;16.6;14.9;;;;;;;8.48;100;950.5463;;;;
2019/04/08 03:16:33;;;;;;;16.6;14.9;;;;;;;8.46;100;950.5019;;;;
2019/04/08 03:18:58;;;;;;;16;14.4;;;;;;;8.46;100;950.4804;;;;
2019/04/08 03:21:24;;;;;;;16.5;14.8;;;;;;;8.46;100;950.4684;;;;
2019/04/08 03:23:49;;;;;;;16;14.4;;;;;;;8.46;100;950.5313;;;;
2019/04/08 03:26:14;;;;;;;14.8;13.2;;;;;;;8.45;100;950.4604;;;;
2019/04/08 03:28:39;;;;;;;14.7;13.3;;;;;;;8.46;100;950.4724;;;;
2019/04/08 03:31:04;;;;;;;15;13.5;;;;;;;8.43;100;950.5178;;;;
2019/04/08 03:33:30;;;;;;;14.6;12.7;;;;;;;8.46;100;950.5575;;;;
2019/04/08 03:35:55;;;;;;;15.2;13.6;;;;;;;8.42;100;950.5872;;;;
2019/04/08 03:38:21;;;;;;;13.9;12.4;;;;;;;8.41;100;950.5625;;;;
2019/04/08 03:40:47;;;;;;;14.9;13.4;;;;;;;8.4;100;950.5633;;;;
2019/04/08 03:43:12;;;;;;;14.2;12.8;;;;;;;8.41;100;950.5666;;;;
2019/04/08 03:45:37;;;;;;;14;12.6;;;;;;;8.41;100;950.5458;;;;
2019/04/08 03:48:02;;;;;;;14.6;13.1;;;;;;;8.4;100;950.6523;;;;
2019/04/08 03:50:27;;;;;;;14.3;12.9;;;;;;;8.41;100;950.6389;;;;
2019/04/08 03:52:53;;;;;;;14.1;12.7;;;;;;;8.39;100;950.6708;;;;
2019/04/08 03:55:18;;;;;;;15.2;13.6;;;;;;;8.37;100;950.7155;;;;
2019/04/08 03:57:44;;;;;;;14.2;12.8;;;;;;;8.38;100;950.7439;;;;
2019/04/08 04:02:30;;;;;;;13.4;12.1;;;;;;;8.39;100;950.6247;;;;
2019/04/08 04:05:08;;;;;;;13.1;11.8;;;;;;;8.43;100;950.6873;;;;
2019/04/08 04:07:23;;;;;;;13.8;12.4;;;;;;;8.43;100;950.7214;;;;
2019/04/08 04:09:46;;;;;;;13.5;12.1;;;;;;;8.41;100;950.7065;;;;
2019/04/08 04:12:11;;;;;;;13.2;11.9;;;;;;;8.39;100;950.713;;;;
2019/04/08 04:14:36;;;;;;;13.6;12.2;;;;;;;8.41;100;950.728;;;;
2019/04/08 04:17:03;;;;;;;13.2;11.9;;;;;;;8.38;100;950.7439;;;;
2019/04/08 04:19:28;;;;;;;13;11.8;;;;;;;8.39;100;950.7766;;;;
2019/04/08 04:21:53;;;;;;;13.3;11.9;;;;;;;8.38;100;950.7402;;;;
2019/04/08 04:24:18;;;;;;;12;10.8;;;;;;;8.39;100;950.8021;;;;
2019/04/08 04:26:53;;;;;;;12.4;11.2;;;;;;;8.37;100;950.7576;;;;
2019/04/08 04:29:18;;;;;;;11.9;10.7;;;;;;;8.38;100;950.7439;;;;
2019/04/08 04:31:43;;;;;;;12.3;11.1;;;;;;;8.36;100;950.7806;;;;
2019/04/08 04:34:09;;;;;;;11.7;10.6;;;;;;;8.35;100;950.7522;;;;
2019/04/08 04:36:34;;;;;;;12.6;11.3;;;;;;;8.32;100;950.7507;;;;
2019/04/08 04:38:59;;;;;;;11.7;10.5;;;;;;;8.33;100;950.8391;;;;
2019/04/08 04:41:24;;;;;;;11.6;10.4;;;;;;;8.33;100;950.834;;;;
2019/04/08 04:43:49;;;;;;;10.6;9.5;;;;;;;8.35;100;950.866;;;;
2019/04/08 04:46:14;;;;;;;10.6;9.6;;;;;;;8.32;100;950.9161;;;;
2019/04/08 04:48:39;;;;;;;10.6;9.5;;;;;;;8.33;100;950.9576;;;;
2019/04/08 04:51:04;;;;;;;9.3;8.4;;;;;;;8.32;100;950.9456;;;;
2019/04/08 04:53:30;;;;;;;9.9;8.9;;;;;;;8.33;100;951.0212;;;;
2019/04/08 04:55:55;;;;;;;9.5;8.6;;;;;;;8.31;100;951.0187;;;;
2019/04/08 04:58:20;;;;;;;11;8.7;;;;;;;8.31;100;951.0237;;;;
2019/04/08 05:00:45;;;;;;;9.7;8.8;;;;;;;8.3;100;951.1135;;;;
2019/04/08 05:03:10;;;;;;;9.4;8.5;;;;;;;8.3;100;951.1055;;;;
2019/04/08 05:05:35;;;;;;;9.6;8.7;;;;;;;8.31;100;951.0706;;;;
2019/04/08 05:08:00;;;;;;;11.9;10.7;;;;;;;8.3;100;951.1476;;;;
2019/04/08 05:10:25;;;;;;;11;9.9;;;;;;;8.31;100;951.1088;;;;
2019/04/08 05:12:50;;;;;;;12.1;10.8;;;;;;;8.31;100;951.1292;;;;
2019/04/08 05:15:17;;;;;;;12.2;10.9;;;;;;;8.3;100;951.228;;;;
2019/04/08 05:17:42;;;;;;;13.1;11.2;;;;;;;8.33;100;951.2463;;;;
2019/04/08 05:20:07;;;;;;;13.4;11.9;;;;;;;8.34;100;951.3295;;;;
2019/04/08 05:22:32;;;;;;;13.3;12;;;;;;;8.33;100;951.2805;;;;
2019/04/08 05:24:57;;;;;;;12;10.7;;;;;;;8.33;100;951.3353;;;;
2019/04/08 05:27:23;;;;;;;13.9;12.3;;;;;;;8.34;100;951.3972;;;;
2019/04/08 05:29:48;;;;;;;14.4;12.9;;;;;;;8.32;100;951.4037;;;;
2019/04/08 05:32:13;;;;;;;13.3;11.8;;;;;;;8.33;100;951.4372;;;;
2019/04/08 05:34:38;;;;;;;14;12.4;;;;;;;8.34;100;951.4783;;;;
2019/04/08 05:37:03;;;;;;;14.5;13;;;;;;;8.34;100;951.5078;;;;
2019/04/08 05:39:28;;;;;;;14.3;12.9;;;;;;;8.35;100;951.4816;;;;
2019/04/08 05:41:53;;;;;;;14.3;12.8;;;;;;;8.37;100;951.4958;;;;
2019/04/08 05:44:19;;;;;;;14.1;12.7;;;;;;;8.4;100;951.4807;;;;
2019/04/08 05:46:44;;;;;;;14.3;12.8;;;;;;;8.43;100;951.5662;;;;
2019/04/08 05:49:23;;;;;;;15.2;13.6;;;;;;;8.42;100;951.5759;;;;
2019/04/08 05:51:44;;;;;;;15.6;14;;;;;;;8.43;100;951.6378;;;;
2019/04/08 05:59:55;;;;;;;16.1;14.4;;;;;;;8.48;100;951.6242;;;;
2019/04/08 06:02:06;;;;;;;16;14.5;;;;;;;8.5;100;951.55;;;;
2019/04/08 06:04:27;;;;;;;16.4;14.7;;;;;;;8.56;100;951.6033;;;;
2019/04/08 06:07:10;;;;;;;17.9;16;;;;;;;8.59;100;951.5823;;;;
2019/04/08 06:09:18;;;;;;;17.7;14.9;;;;;;;8.6;100;951.5346;;;;
2019/04/08 06:12:13;;;;;;;16;14.4;;;;;;;8.64;100;951.59;;;;
2019/04/08 06:14:11;;;;;;;15.8;13.8;;;;;;;8.67;100;951.625;;;;
2019/04/08 06:17:02;;;;;;;16.6;14.9;;;;;;;8.7;100;951.6512;;;;
2019/04/08 06:19:12;;;;;;;15.5;13.9;;;;;;;8.73;100;951.6557;;;;
2019/04/08 06:21:27;;;;;;;15.4;13.8;;;;;;;8.75;100;951.5854;;;;
2019/04/08 06:28:52;;;;;;;16.8;15.1;;;;;;;9.03;100;951.5633;;;;
2019/04/08 06:31:23;;;;;;;15.9;14.3;;;;;;;9.03;100;951.6309;;;;
2019/04/08 06:40:42;;;;;;;15.8;14.2;;;;;;;9.21;100;951.6959;;;;
2019/04/08 06:43:23;;;;;;;14.5;13;;;;;;;9.3;100;951.6475;;;;
2019/04/08 06:45:38;;;;;;;14.5;13.1;;;;;;;9.38;100;951.639;;;;
2019/04/08 06:48:20;;;;;;;14.9;13.2;;;;;;;9.39;100;951.6845;;;;
2019/04/08 06:56:38;;;;;;;15;13.2;;;;;;;9.4;100;951.7001;;;;
2019/04/08 07:00:30;;;;;;;15;13.2;;;;;;;9.45;100;951.6688;;;;
2019/04/08 07:02:57;;;;;;;15.6;13.1;;;;;;;9.48;100;951.6742;;;;
2019/04/08 07:05:33;;;;;;;15.2;13.2;;;;;;;9.4;100;951.7177;;;;
2019/04/08 07:11:11;;;;;;;14.8;12.9;;;;;;;9.45;100;951.7374;;;;
2019/04/08 07:13:53;;;;;;;13.6;12.2;;;;;;;9.43;100;951.7949;;;;
2019/04/08 07:18:22;;;;;;;13.4;12;;;;;;;9.49;100;951.6947;;;;
2019/04/08 07:20:52;;;;;;;15.8;13.1;;;;;;;9.61;100;951.7065;;;;
2019/04/08 07:23:06;;;;;;;13.3;11.9;;;;;;;9.57;100;951.7022;;;;
2019/04/08 07:28:03;;;;;;;13.2;11.4;;;;;;;9.99;100;951.7098;;;;
2019/04/08 07:31:02;;;;;;;12.4;11.2;;;;;;;10.14;100;951.6334;;;;
2019/04/08 07:41:00;;;;;;;11.5;10.4;;;;;;;10.26;100;951.7942;;;;
2019/04/08 07:46:19;;;;;;;12.4;11.1;;;;;;;10.21;100;951.7955;;;;
2019/04/08 07:48:45;;;;;;;12.9;11.5;;;;;;;10.37;100;951.7595;;;;
2019/04/08 07:54:44;;;;;;;11.7;10.5;;;;;;;11.09;99.0752;951.7858;;;;
2019/04/08 08:08:02;;;;;;;13.6;10.7;;;;;;;11.49;95.89063;951.9717;;;;
2019/04/08 08:10:30;;;;;;;11.6;10.4;;;;;;;11.58;94.6543;951.9263;;;;
2019/04/08 08:13:14;;;;;;;11.6;9.7;;;;;;;11.62;93.21094;951.9899;;;;
2019/04/08 08:23:10;;;;;;;11.4;10.3;;;;;;;12.21;88.71289;951.9484;;;;
2019/04/08 08:28:46;;;;;;;10.7;9.6;;;;;;;12.75;83.21582;951.9367;;;;
2019/04/08 08:31:15;;;;;;;11.1;9.3;;;;;;;12.92;81.77832;951.9659;;;;
2019/04/08 08:35:05;;;;;;;10.6;9.6;;;;;;;12.94;81.28223;952.0144;;;;
2019/04/08 08:36:13;;;;;;;10.8;9.7;;;;;;;12.91;80.42578;951.976;;;;
2019/04/08 08:41:04;;;;;;;10.2;9.2;;;;;;;12.84;80.80859;951.9886;;;;
2019/04/08 08:43:34;;;;;;;10.9;9.8;;;;;;;13.02;79.75684;952.0168;;;;
2019/04/08 08:46:04;;;;;;;10.8;9.7;;;;;;;12.97;80.02734;952.0619;;;;
2019/04/08 08:48:23;;;;;;;10;9;;;;;;;12.93;80.56934;952.0244;;;;
2019/04/08 08:58:31;;;;;;;8.2;7.4;;;;;;;13.8;74.3125;951.9347;;;;
2019/04/08 09:07:56;;;;;;;7.2;6.5;;;;;;;15.47;65.98828;951.8666;;;;
2019/04/08 09:10:56;;;;;;;7;6.4;;;;;;;15.85;65.05859;951.9174;;;;
2019/04/08 09:12:49;;;;;;;7.7;7;;;;;;;15.52;64.52832;951.9031;;;;
2019/04/08 09:15:07;;;;;;;7.4;6.6;;;;;;;15.08;66.36328;951.9058;;;;
2019/04/08 09:20:21;;;;;;;10;7.2;;;;;;;14.69;67.76758;951.8855;;;;
2019/04/08 09:22:35;;;;;;;8.5;7.7;;;;;;;14.8;67.65625;951.8755;;;;
2019/04/08 09:25:04;;;;;;;11.3;7.8;;;;;;;14.63;68.74121;951.8808;;;;
2019/04/08 09:43:00;;;;;;;8.6;7.8;;;;;;;13.67;72.50391;951.9989;;;;
2019/04/08 09:45:39;;;;;;;8.9;7.9;;;;;;;13.88;70.99707;952.0305;;;;
2019/04/08 09:47:45;;;;;;;8.9;8;;;;;;;13.62;71.8877;952.0393;;;;
2019/04/08 09:52:38;;;;;;;8.5;7.7;;;;;;;13.83;71.2666;952.0168;;;;
2019/04/08 10:00:41;;;;;;;8.9;8;;;;;;;13.67;71.5459;952.0245;;;;
2019/04/08 10:03:17;;;;;;;8.9;7.4;;;;;;;13.8;71.86035;952.0711;;;;
2019/04/08 10:08:07;;;;;;;8.4;7.6;;;;;;;13.47;72.02637;952.0934;;;;
2019/04/08 10:10:59;;;;;;;8.9;8;;;;;;;13.24;73.51855;952.0917;;;;
2019/04/08 10:15:18;;;;;;;9.1;8.2;;;;;;;13.17;74.60547;952.0964;;;;
2019/04/08 10:18:05;;;;;;;8.6;7.7;;;;;;;13.19;74.67676;952.0214;;;;
2019/04/08 10:25:13;;;;;;;8.3;7.5;;;;;;;13.01;75.14746;952.0609;;;;
2019/04/08 10:35:17;;;;;;;8.5;7.7;;;;;;;13.26;73.01953;952.0977;;;;
2019/04/08 10:37:44;;;;;;;8.3;7.1;;;;;;;13.19;74.06934;952.0214;;;;
2019/04/08 10:40:17;;;;;;;7.9;7;;;;;;;13.31;73.81055;952.0878;;;;
2019/04/08 10:44:56;;;;;;;9.2;7.8;;;;;;;13.51;71.8584;952.1298;;;;
2019/04/08 10:57:43;;;;;;;8.1;7.3;;;;;;;13.02;74.32129;952.145;;;;
2019/04/08 11:03:23;;;;;;;7.7;6.9;;;;;;;12.78;76.41309;952.1802;;;;
2019/04/08 11:08:37;;;;;;;8;7.2;;;;;;;12.85;76.77734;952.1451;;;;
2019/04/08 11:13:01;;;;;;;10.5;8.9;;;;;;;13.21;77.19043;952.1214;;;;
2019/04/08 11:15:29;;;;;;;8.7;7.8;;;;;;;13.3;79.83105;952.1403;;;;
2019/04/08 11:25:06;;;;;;;9;8.2;;;;;;;13.31;75.95898;952.16;;;;
2019/04/08 11:45:07;;;;;;;9.4;7.7;;;;;;;14.1;72.1084;952.165;;;;
2019/04/08 11:52:11;;;;;;;9.2;8.2;;;;;;;14.54;72.2041;952.1758;;;;
2019/04/08 12:02:15;;;;;;;12;8.4;;;;;;;14.7;69.39648;952.1635;;;;
2019/04/08 12:04:58;;;;;;;8.4;7.6;;;;;;;14.6;69.59082;952.1468;;;;
2019/04/08 12:07:43;;;;;;;8.4;7.6;;;;;;;14.62;69.84082;952.1401;;;;
2019/04/08 12:10:11;;;;;;;11;9.5;;;;;;;14.66;66.33496;952.1252;;;;
2019/04/08 12:12:02;;;;;;;9.1;8.2;;;;;;;14.65;65.75879;952.0884;;;;
2019/04/08 12:14:39;;;;;;;8.6;7.8;;;;;;;14.52;66.06738;952.067;;;;
2019/04/08 12:19:26;;;;;;;9.3;8.3;;;;;;;14.55;65.98926;952.0628;;;;
2019/04/08 12:24:09;;;;;;;9.1;8.2;;;;;;;14.24;66.53906;951.9327;;;;
2019/04/08 12:29:36;;;;;;;9.1;8.1;;;;;;;14.72;65.47656;952.0022;;;;
2019/04/08 12:35:12;;;;;;;9.2;8;;;;;;;14.35;67.64453;951.9734;;;;
2019/04/08 12:39:56;;;;;;;10.8;9.4;;;;;;;14.63;65.65039;951.9579;;;;
2019/04/08 12:42:23;;;;;;;10.1;8.8;;;;;;;14.79;65.26465;951.9792;;;;
2019/04/08 12:47:13;;;;;;;8.4;7.5;;;;;;;15.25;63;951.9476;;;;
2019/04/08 12:49:48;;;;;;;9.5;8.2;;;;;;;15.66;61.09961;951.9177;;;;
2019/04/08 12:53:45;;;;;;;8.3;7.5;;;;;;;15.82;59.4541;951.9255;;;;
2019/04/08 13:02:00;;;;;;;7.8;7;;;;;;;16.87;54.59473;951.9113;;;;
2019/04/08 13:09:22;;;;;;;9;8.1;;;;;;;17.42;52.55469;951.8875;;;;
2019/04/08 13:11:51;;;;;;;11.9;8.3;;;;;;;17.61;52.1875;951.8742;;;;
2019/04/08 13:14:26;;;;;;;11.3;8.9;;;;;;;17.23;52.09668;951.9107;;;;
2019/04/08 13:17:03;;;;;;;9.5;8.6;;;;;;;17.12;52.44727;951.927;;;;
2019/04/08 13:19:33;;;;;;;9.3;8.4;;;;;;;16.99;53.63379;951.903;;;;
2019/04/08 13:22:06;;;;;;;8.5;7.6;;;;;;;17.52;52.0127;951.8772;;;;
2019/04/08 13:24:39;;;;;;;8;7.2;;;;;;;17.5;52.13965;951.8981;;;;
2019/04/08 13:27:23;;;;;;;8.8;7.3;;;;;;;17.39;52.73926;951.849;;;;
2019/04/08 13:30:02;;;;;;;8.1;7.3;;;;;;;17.98;51.27637;951.8975;;;;
2019/04/08 13:32:28;;;;;;;8.3;7.5;;;;;;;18.31;49.31934;951.861;;;;
2019/04/08 13:34:55;;;;;;;8.9;8;;;;;;;17.84;50.35156;951.8619;;;;
2019/04/08 13:37:28;;;;;;;9.7;8.3;;;;;;;17.62;50.73828;951.855;;;;
2019/04/08 13:40:08;;;;;;;8.8;7.9;;;;;;;18.03;50.04297;951.8467;;;;
2019/04/08 13:42:38;;;;;;;8.2;7.4;;;;;;;18.23;49.4043;951.8855;;;;
2019/04/08 13:45:14;;;;;;;9.1;8.2;;;;;;;18.22;49.56934;951.8527;;;;
2019/04/08 13:47:49;;;;;;;8.8;7.9;;;;;;;17.86;50.31836;951.8028;;;;
2019/04/08 13:50:19;;;;;;;7.8;7;;;;;;;17.56;51.81641;951.7606;;;;
2019/04/08 13:52:49;;;;;;;7.8;7;;;;;;;17.85;51.61523;951.8118;;;;
2019/04/08 13:55:16;;;;;;;8;7.2;;;;;;;17.96;50.62402;951.7662;;;;
2019/04/08 13:57:41;;;;;;;7.5;6.8;;;;;;;18.04;50.40918;951.8278;;;;
2019/04/08 14:00:40;;;;;;;8.2;7.4;;;;;;;17.71;50.44336;951.7512;;;;
2019/04/08 14:02:49;;;;;;;8.8;7.9;;;;;;;17.55;50.69629;951.7228;;;;
2019/04/08 14:05:25;;;;;;;8.3;7.2;;;;;;;17.11;52.45801;951.7086;;;;
2019/04/08 14:07:51;;;;;;;9.2;8.3;;;;;;;17.14;51.79102;951.7043;;;;
2019/04/08 14:10:21;;;;;;;8.9;8;;;;;;;17.3;50.85547;951.7369;;;;
2019/04/08 14:12:52;;;;;;;9.1;8.1;;;;;;;16.75;52.91016;951.7815;;;;
2019/04/08 14:15:25;;;;;;;8;7.3;;;;;;;16.92;52.78906;951.7191;;;;
2019/04/08 14:18:12;;;;;;;8;7.2;;;;;;;16.88;52.66699;951.759;;;;
2019/04/08 14:20:26;;;;;;;8.8;7.9;;;;;;;17.1;52.00977;951.7098;;;;
2019/04/08 14:22:52;;;;;;;8.6;7.2;;;;;;;17.29;50.83008;951.7171;;;;
2019/04/08 14:25:18;;;;;;;8.6;7.7;;;;;;;17.46;50.33105;951.697;;;;
2019/04/08 14:27:47;;;;;;;9.2;8.2;;;;;;;17.17;51.8418;951.6921;;;;
2019/04/08 14:30:18;;;;;;;8.4;7.6;;;;;;;16.8;53.04492;951.6718;;;;
2019/04/08 14:32:48;;;;;;;9;8.1;;;;;;;16.67;53.5;951.7158;;;;
2019/04/08 14:35:34;;;;;;;7.6;6.9;;;;;;;16.86;52.86426;951.7058;;;;
2019/04/08 14:38:10;;;;;;;8.6;7.5;;;;;;;16.79;52.63184;951.6728;;;;
2019/04/08 14:40:39;;;;;;;8;7.2;;;;;;;16.61;53.75;951.6778;;;;
2019/04/08 14:43:05;;;;;;;8.5;7.6;;;;;;;16.63;53.96387;951.7092;;;;
2019/04/08 14:45:30;;;;;;;8.5;7.4;;;;;;;17.09;52.97559;951.6552;;;;
2019/04/08 14:47:55;;;;;;;8.3;7.5;;;;;;;17.25;52.12207;951.7485;;;;
2019/04/08 14:50:21;;;;;;;7.8;7.1;;;;;;;17.15;52.28711;951.6994;;;;
2019/04/08 14:52:49;;;;;;;7.4;6.7;;;;;;;16.32;55.14941;951.7272;;;;
2019/04/08 14:55:11;;;;;;;8.2;6.1;;;;;;;16.6;55.2207;951.6867;;;;
2019/04/08 14:57:40;;;;;;;8.2;6.6;;;;;;;16.82;54.29492;951.7241;;;;
2019/04/08 15:00:05;;;;;;;6.9;6.2;;;;;;;16.58;55.38184;951.6859;;;;
2019/04/08 15:02:30;;;;;;;7.2;6.4;;;;;;;16.38;55.98047;951.671;;;;
2019/04/08 15:04:58;;;;;;;8.2;6.6;;;;;;;16.24;56.83301;951.7159;;;;
2019/04/08 15:07:27;;;;;;;6.6;5.7;;;;;;;16.27;57.10645;951.7247;;;;
2019/04/08 15:09:52;;;;;;;7.2;6.5;;;;;;;15.98;58.14844;951.731;;;;
2019/04/08 15:12:17;;;;;;;7.2;6.2;;;;;;;16.01;57.71777;951.7358;;;;
2019/04/08 15:14:42;;;;;;;6.3;5.7;;;;;;;16.12;57.32227;951.6683;;;;
2019/04/08 15:17:07;;;;;;;6.6;6;;;;;;;15.98;58.07813;951.6718;;;;
2019/04/08 15:19:35;;;;;;;9.5;5.9;;;;;;;16.12;57.56738;951.7377;;;;
2019/04/08 15:21:58;;;;;;;8;6.3;;;;;;;16.18;57.43457;951.7126;;;;
2019/04/08 15:24:23;;;;;;;7;6.2;;;;;;;16.02;57.76563;951.709;;;;
2019/04/08 15:26:48;;;;;;;7.4;6.4;;;;;;;15.94;58.7666;951.6848;;;;
2019/04/08 15:29:13;;;;;;;7.2;6.5;;;;;;;16.31;57.65234;951.6637;;;;
2019/04/08 15:31:38;;;;;;;8.6;7.3;;;;;;;16.06;57.80664;951.6561;;;;
2019/04/08 15:34:04;;;;;;;8.6;7.6;;;;;;;16.26;56.81055;951.671;;;;
2019/04/08 15:36:29;;;;;;;9.4;8;;;;;;;16.13;56.81738;951.6892;;;;
2019/04/08 15:38:54;;;;;;;11.6;10.1;;;;;;;16.06;57.12598;951.6303;;;;
2019/04/08 15:41:19;;;;;;;13.3;11;;;;;;;16.09;56.70605;951.7203;;;;
2019/04/08 15:43:44;;;;;;;9.3;8.2;;;;;;;15.85;57.68457;951.7877;;;;
2019/04/08 15:46:09;;;;;;;8.8;7.7;;;;;;;15.88;57.8877;951.7241;;;;
2019/04/08 15:48:34;;;;;;;8.8;8;;;;;;;15.41;59.71582;951.7279;;;;
2019/04/08 15:50:59;;;;;;;8.4;7.6;;;;;;;15.66;59.1748;951.7067;;;;
2019/04/08 15:53:25;;;;;;;9;8.1;;;;;;;15.68;59.21289;951.7511;;;;
2019/04/08 15:55:50;;;;;;;7.9;7.2;;;;;;;15.69;59.06055;951.8056;;;;
2019/04/08 15:58:15;;;;;;;8.3;7.5;;;;;;;15.79;58.64063;951.7495;;;;
2019/04/08 16:00:40;;;;;;;9.8;7.7;;;;;;;15.69;59.31934;951.7333;;;;
2019/04/08 16:03:05;;;;;;;9.3;7.5;;;;;;;15.7;59.25098;951.7311;;;;
2019/04/08 16:05:31;;;;;;;8.4;7.6;;;;;;;15.53;59.7666;951.785;;;;
2019/04/08 16:07:56;;;;;;;9.8;7.7;;;;;;;15.52;59.55566;951.7859;;;;
2019/04/08 16:10:21;;;;;;;10.4;8.1;;;;;;;15.33;60.20996;951.8629;;;;
2019/04/08 16:12:46;;;;;;;10.2;8.2;;;;;;;15.35;60.23633;951.8691;;;;
2019/04/08 16:15:11;;;;;;;9;7.6;;;;;;;15.2;61.23438;951.7656;;;;
2019/04/08 16:17:36;;;;;;;8.7;7.8;;;;;;;15.2;61.97363;951.8211;;;;
2019/04/08 16:20:01;;;;;;;7.7;6.9;;;;;;;15.08;62.84668;951.8543;;;;
2019/04/08 16:22:26;;;;;;;8.1;7.2;;;;;;;15.07;62.48242;951.813;;;;
2019/04/08 16:24:52;;;;;;;8.1;7.2;;;;;;;14.95;63.0625;951.8035;;;;
2019/04/08 16:27:17;;;;;;;9.6;8.3;;;;;;;14.79;63.39063;951.812;;;;
2019/04/08 16:29:42;;;;;;;9.1;7.6;;;;;;;14.71;63.91895;951.8309;;;;
2019/04/08 16:32:07;;;;;;;8.8;7.8;;;;;;;14.6;64.22949;951.8719;;;;
2019/04/08 16:34:32;;;;;;;8;7.2;;;;;;;14.47;65.1582;951.8041;;;;
2019/04/08 16:36:57;;;;;;;8.2;7.4;;;;;;;14.39;66.21289;951.7537;;;;
2019/04/08 16:39:22;;;;;;;7.9;7;;;;;;;14.28;67.43555;951.8585;;;;
2019/04/08 16:41:48;;;;;;;8.3;7.5;;;;;;;14.2;67.88965;951.8013;;;;
2019/04/08 16:44:13;;;;;;;8.6;7.7;;;;;;;14.16;67.86035;951.8446;;;;
2019/04/08 16:46:38;;;;;;;8.4;7.2;;;;;;;14;68.4082;951.8102;;;;
2019/04/08 16:49:03;;;;;;;9.6;7.5;;;;;;;13.98;68.07813;951.7914;;;;
2019/04/08 16:51:28;;;;;;;8.8;7.9;;;;;;;13.89;68.49707;951.7816;;;;
2019/04/08 16:53:53;;;;;;;7.7;6.8;;;;;;;13.94;68.7627;951.8133;;;;
2019/04/08 16:56:19;;;;;;;8;7.2;;;;;;;13.8;70.10547;951.832;;;;
2019/04/08 16:58:44;;;;;;;7.2;6.5;;;;;;;13.79;70.15234;951.7983;;;;
2019/04/08 17:01:09;;;;;;;8.5;7.2;;;;;;;13.67;70.98535;951.8489;;;;
2019/04/08 17:03:34;;;;;;;8.4;7.5;;;;;;;13.53;71.25391;951.824;;;;
2019/04/08 17:05:59;;;;;;;8.3;7.5;;;;;;;13.45;71.86035;951.8553;;;;
2019/04/08 17:08:24;;;;;;;9.3;7.8;;;;;;;13.41;72.23828;951.87;;;;
2019/04/08 17:10:50;;;;;;;9.2;7.8;;;;;;;13.34;72.41406;951.9302;;;;
2019/04/08 17:13:15;;;;;;;11;7.7;;;;;;;13.23;73.41211;951.927;;;;
2019/04/08 17:15:40;;;;;;;8.1;7.3;;;;;;;13.11;74.22949;951.9255;;;;
2019/04/08 17:18:05;;;;;;;7.8;6.9;;;;;;;13.05;74.89746;951.9153;;;;
2019/04/08 17:20:30;;;;;;;8.6;7.8;;;;;;;12.98;75.29297;951.8775;;;;
2019/04/08 17:22:55;;;;;;;9.8;8.5;;;;;;;12.96;75.2334;951.9048;;;;
2019/04/08 17:25:21;;;;;;;9.1;8.2;;;;;;;12.86;76.32227;951.8839;;;;
2019/04/08 17:27:46;;;;;;;11.4;8.2;;;;;;;12.72;77.20703;951.9149;;;;
2019/04/08 17:30:11;;;;;;;10.5;8;;;;;;;12.67;77.52539;951.9501;;;;
2019/04/08 17:32:38;;;;;;;9.5;8.3;;;;;;;12.6;77.46582;951.8778;;;;
2019/04/08 17:35:02;;;;;;;9.4;8.3;;;;;;;12.5;78.74219;951.8988;;;;
2019/04/08 17:37:26;;;;;;;9.9;8.7;;;;;;;12.46;78.97852;951.9045;;;;
2019/04/08 17:39:51;;;;;;;8.8;7.9;;;;;;;12.38;79.54688;951.9013;;;;
2019/04/08 17:42:16;;;;;;;10.7;8;;;;;;;12.32;80.1543;951.9255;;;;
2019/04/08 17:44:41;;;;;;;7.6;6.9;;;;;;;12.24;80.91992;951.9911;;;;
2019/04/08 17:47:07;;;;;;;8.8;7.9;;;;;;;12.15;81.14551;951.9639;;;;
2019/04/08 17:49:32;;;;;;;7.9;7.1;;;;;;;12.11;81.57031;952.0028;;;;
2019/04/08 17:51:57;;;;;;;8.8;7.9;;;;;;;12.05;82.20996;951.976;;;;
2019/04/08 17:54:22;;;;;;;9.1;8.2;;;;;;;11.98;83.02246;952.0187;;;;
2019/04/08 17:56:47;;;;;;;9.2;8.2;;;;;;;11.93;83.6875;951.9827;;;;
2019/04/08 17:59:12;;;;;;;8.9;7.7;;;;;;;11.89;83.79688;952.0555;;;;
2019/04/08 18:01:46;;;;;;;9.8;8.8;;;;;;;11.86;84.56934;952.0167;;;;
2019/04/08 18:04:03;;;;;;;9.3;8.3;;;;;;;11.79;85.18555;952.0466;;;;
2019/04/08 18:06:28;;;;;;;10.8;8.2;;;;;;;11.79;85.05566;952.0812;;;;
2019/04/08 18:08:53;;;;;;;11.6;8.3;;;;;;;11.75;85.80469;952.1241;;;;
2019/04/08 18:11:19;;;;;;;10.8;8.7;;;;;;;11.7;86.50391;952.1304;;;;
2019/04/08 18:13:44;;;;;;;12.2;10.6;;;;;;;11.65;87.04297;952.118;;;;
2019/04/08 18:16:09;;;;;;;9.1;7.9;;;;;;;11.63;86.85156;952.1591;;;;
2019/04/08 18:18:34;;;;;;;8.5;7.6;;;;;;;11.58;88.1084;952.1863;;;;
2019/04/08 18:20:58;;;;;;;10.6;8.3;;;;;;;11.56;88.12793;952.2058;;;;